Wheat Ridge, CO (80033)

10:16 PM MDT on September 18, 2014 (GMT -0600)
Crown Hill Park | Change Station
CLOSE
Current Station
Personal Weather Station
Location: Wheat Ridge, CO
Elevation: 5480 ft
Nearby Weather Stations

Elev 5480 ft 39.77 °N, 105.10 °W | Updated 6 minutes ago

Clear
Clear
69.4 °F
Feels Like 69.4 °F
N
0.0
Wind Variable Wind from South

Today
High -- | Low -- °F
--% Chance of Precip.
Yesterday
High -- | Low -- °F
Precip. -- in
6:44 AM 7:03 PM
Waning Crescent, 22% visible
Pressure 29.97 in
Visibility 50.0 miles
Clouds Clear
Dew Point 43 °F
Humidity 39%
Rainfall 0.00 in
Snow Depth 0 in , 0 in , 6 in
UV 0 out of 12
Pollen 7.70 out of 12
Ozone Good
PM2.5 Good
Flu Activity Not available.
METAR KBJC 190345Z 15008KT 50SM SKC 22/03 A2997

More Conditions Fewer Conditions

Pressure 29.97 in
Visibility 50.0 miles
Clouds Clear
Dew Point 43 °F
Humidity 39%
Rainfall 0.00 in
Snow Depth 0 in , 0 in , 6 in
UV 0 out of 12
Pollen 7.70 out of 12
Ozone Good
PM2.5 Good
Flu Activity Not available.
METAR KBJC 190345Z 15008KT 50SM SKC 22/03 A2997

More Conditions Fewer Conditions

10-Day Weather Forecast

Almanac

Astronomy

Sep. 18, 2014 Rise Set
Actual Time 6:44 AM MDT 7:03 PM MDT
Civil Twilight 6:17 AM MDT 7:30 PM MDT
Nautical Twilight 5:45 AM MDT 8:02 PM MDT
Astronomical Twilight 5:13 AM MDT 8:34 PM MDT
Moon 1:39 AM MDT (9/18) 3:56 PM MDT (9/18)
Length of Visible Light 13h 13m
Length of Day
12h 19m
Tomorrow will be 2m 35s shorter.
Waning Crescent, 22% of the Moon is Illuminated
Sep 19
Waning Crescent
Sep 24
New
Oct 1
First Quarter
Oct 8
Full
Oct 15
Last Quarter

Today's Extremes

State Highs State Lows

Community

WunderPhotos

Upload Photos

1,754,558 photos uploaded!

Nearby

Air Quality

  Air Quality AQ Index Pollutant
Yesterday Good
OZONE
Yesterday Good
PM10
Current Good
OZONE
Current Good
PM2.5
Thursday Moderate
OZONE
Thursday Good
PM2.5
Friday Moderate
OZONE
Friday Good
PM2.5

Snow Depth

Station Depth Elevation
Arapaho Ridge 0 in 10960 ft
Zirkel 0 in 9340 ft
Rawah 6 in 9020 ft
Lone Cone 1 in 9600 ft
Columbine Pass 0 in 9400 ft

Earthquake Activity

City Distance Mag. Time & Date
No recent earthquake activity has been reported nearby.
Minimum magnitude displayed is 2.5.

Coastal Water Temperatures

Place Temperature
No Stations Reporting

Nearby Weather Stations